sensor_id;sensor_type;location;lat;lon;timestamp;temperature;humidity
42973;DHT22;28610;51.214;6.962;2022-08-01T00:02:32;20.10;99.90
42973;DHT22;28610;51.214;6.962;2022-08-01T00:05:17;20.10;99.90
42973;DHT22;28610;51.214;6.962;2022-08-01T00:08:03;20.20;99.90
42973;DHT22;28610;51.214;6.962;2022-08-01T00:10:48;20.20;99.90
42973;DHT22;28610;51.214;6.962;2022-08-01T00:13:35;20.20;99.90
42973;DHT22;28610;51.214;6.962;2022-08-01T00:16:21;20.20;99.90
42973;DHT22;28610;51.214;6.962;2022-08-01T00:19:07;20.20;99.90
42973;DHT22;28610;51.214;6.962;2022-08-01T00:21:52;20.20;99.90
42973;DHT22;28610;51.214;6.962;2022-08-01T00:24:38;20.20;99.90
42973;DHT22;28610;51.214;6.962;2022-08-01T00:27:24;20.10;99.90
42973;DHT22;28610;51.214;6.962;2022-08-01T00:30:11;20.00;99.90
42973;DHT22;28610;51.214;6.962;2022-08-01T00:32:56;20.00;99.90
42973;DHT22;28610;51.214;6.962;2022-08-01T00:35:42;20.10;99.90
42973;DHT22;28610;51.214;6.962;2022-08-01T00:38:27;20.10;99.90
42973;DHT22;28610;51.214;6.962;2022-08-01T00:41:13;20.10;99.90
42973;DHT22;28610;51.214;6.962;2022-08-01T00:44:01;20.10;99.90
42973;DHT22;28610;51.214;6.962;2022-08-01T00:46:48;20.20;99.90
42973;DHT22;28610;51.214;6.962;2022-08-01T00:49:34;20.10;99.90
42973;DHT22;28610;51.214;6.962;2022-08-01T00:52:19;20.00;99.90
42973;DHT22;28610;51.214;6.962;2022-08-01T00:55:05;20.00;99.90
42973;DHT22;28610;51.214;6.962;2022-08-01T00:57:51;20.00;99.90
42973;DHT22;28610;51.214;6.962;2022-08-01T01:00:36;19.90;99.90
42973;DHT22;28610;51.214;6.962;2022-08-01T01:03:24;19.90;99.90
42973;DHT22;28610;51.214;6.962;2022-08-01T01:06:18;19.90;99.90
42973;DHT22;28610;51.214;6.962;2022-08-01T01:09:17;19.90;99.90
42973;DHT22;28610;51.214;6.962;2022-08-01T01:12:15;19.90;99.90
42973;DHT22;28610;51.214;6.962;2022-08-01T01:15:04;19.80;99.90
42973;DHT22;28610;51.214;6.962;2022-08-01T01:17:57;19.80;99.90
42973;DHT22;28610;51.214;6.962;2022-08-01T01:20:46;19.70;99.90
42973;DHT22;28610;51.214;6.962;2022-08-01T01:23:44;19.70;99.90
42973;DHT22;28610;51.214;6.962;2022-08-01T01:26:38;19.70;99.90
42973;DHT22;28610;51.214;6.962;2022-08-01T01:29:29;19.70;99.90
42973;DHT22;28610;51.214;6.962;2022-08-01T01:32:19;19.70;99.90
42973;DHT22;28610;51.214;6.962;2022-08-01T01:35:10;19.70;99.90
42973;DHT22;28610;51.214;6.962;2022-08-01T01:38:01;19.70;99.90
42973;DHT22;28610;51.214;6.962;2022-08-01T01:40:50;19.70;99.90
42973;DHT22;28610;51.214;6.962;2022-08-01T01:43:37;19.60;99.90
42973;DHT22;28610;51.214;6.962;2022-08-01T01:46:24;19.70;99.90
42973;DHT22;28610;51.214;6.962;2022-08-01T01:49:12;19.70;99.90
42973;DHT22;28610;51.214;6.962;2022-08-01T01:52:00;19.70;99.90
42973;DHT22;28610;51.214;6.962;2022-08-01T01:54:49;19.80;99.90
42973;DHT22;28610;51.214;6.962;2022-08-01T01:57:36;19.70;99.90
42973;DHT22;28610;51.214;6.962;2022-08-01T02:00:23;19.70;99.90
42973;DHT22;28610;51.214;6.962;2022-08-01T02:03:12;19.80;99.90
42973;DHT22;28610;51.214;6.962;2022-08-01T02:05:59;19.80;99.90
42973;DHT22;28610;51.214;6.962;2022-08-01T02:08:47;19.70;99.90
42973;DHT22;28610;51.214;6.962;2022-08-01T02:11:33;19.80;99.90
42973;DHT22;28610;51.214;6.962;2022-08-01T02:14:20;19.80;99.90
42973;DHT22;28610;51.214;6.962;2022-08-01T02:17:09;19.80;99.90
42973;DHT22;28610;51.214;6.962;2022-08-01T02:19:57;19.80;99.90
42973;DHT22;28610;51.214;6.962;2022-08-01T02:22:47;19.80;99.90
42973;DHT22;28610;51.214;6.962;2022-08-01T02:25:39;19.80;99.90
42973;DHT22;28610;51.214;6.962;2022-08-01T02:28:31;19.80;99.90
42973;DHT22;28610;51.214;6.962;2022-08-01T02:31:21;19.80;99.90
42973;DHT22;28610;51.214;6.962;2022-08-01T02:34:09;19.70;99.90
42973;DHT22;28610;51.214;6.962;2022-08-01T02:36:57;19.80;99.90
42973;DHT22;28610;51.214;6.962;2022-08-01T02:39:44;19.70;99.90
42973;DHT22;28610;51.214;6.962;2022-08-01T02:42:35;19.70;99.90
42973;DHT22;28610;51.214;6.962;2022-08-01T02:45:24;19.70;99.90
42973;DHT22;28610;51.214;6.962;2022-08-01T02:48:11;19.80;99.90
42973;DHT22;28610;51.214;6.962;2022-08-01T02:50:59;19.80;99.90
42973;DHT22;28610;51.214;6.962;2022-08-01T02:53:47;19.70;99.90
42973;DHT22;28610;51.214;6.962;2022-08-01T02:56:35;19.80;99.90
42973;DHT22;28610;51.214;6.962;2022-08-01T02:59:22;19.80;99.90
42973;DHT22;28610;51.214;6.962;2022-08-01T03:02:10;19.80;99.90
42973;DHT22;28610;51.214;6.962;2022-08-01T03:04:57;19.70;99.90
42973;DHT22;28610;51.214;6.962;2022-08-01T03:07:44;19.60;99.90
42973;DHT22;28610;51.214;6.962;2022-08-01T03:10:31;19.70;99.90
42973;DHT22;28610;51.214;6.962;2022-08-01T03:13:19;19.70;99.90
42973;DHT22;28610;51.214;6.962;2022-08-01T03:16:05;19.70;99.90
42973;DHT22;28610;51.214;6.962;2022-08-01T03:18:53;19.70;99.90
42973;DHT22;28610;51.214;6.962;2022-08-01T03:21:41;19.70;99.90
42973;DHT22;28610;51.214;6.962;2022-08-01T03:24:28;19.70;99.90
42973;DHT22;28610;51.214;6.962;2022-08-01T03:27:16;19.70;99.90
42973;DHT22;28610;51.214;6.962;2022-08-01T03:30:04;19.70;99.90
42973;DHT22;28610;51.214;6.962;2022-08-01T03:32:50;19.70;99.90
42973;DHT22;28610;51.214;6.962;2022-08-01T03:35:37;19.80;99.90
42973;DHT22;28610;51.214;6.962;2022-08-01T03:38:25;19.80;99.90
42973;DHT22;28610;51.214;6.962;2022-08-01T03:41:15;19.80;99.90
42973;DHT22;28610;51.214;6.962;2022-08-01T03:44:05;19.80;99.90
42973;DHT22;28610;51.214;6.962;2022-08-01T03:46:56;19.70;99.90
42973;DHT22;28610;51.214;6.962;2022-08-01T03:49:44;19.80;99.90
42973;DHT22;28610;51.214;6.962;2022-08-01T03:52:32;19.70;99.90
42973;DHT22;28610;51.214;6.962;2022-08-01T03:55:20;19.70;99.90
42973;DHT22;28610;51.214;6.962;2022-08-01T03:58:08;19.70;99.90
42973;DHT22;28610;51.214;6.962;2022-08-01T04:00:55;19.70;99.90
42973;DHT22;28610;51.214;6.962;2022-08-01T04:03:41;19.70;99.90
42973;DHT22;28610;51.214;6.962;2022-08-01T04:06:27;19.70;99.90
42973;DHT22;28610;51.214;6.962;2022-08-01T04:09:12;19.70;99.90
42973;DHT22;28610;51.214;6.962;2022-08-01T04:11:58;19.60;99.90
42973;DHT22;28610;51.214;6.962;2022-08-01T04:14:44;19.60;99.90
42973;DHT22;28610;51.214;6.962;2022-08-01T04:17:31;19.60;99.90
42973;DHT22;28610;51.214;6.962;2022-08-01T04:20:16;19.70;99.90
42973;DHT22;28610;51.214;6.962;2022-08-01T04:23:03;19.70;99.90
42973;DHT22;28610;51.214;6.962;2022-08-01T04:25:49;19.60;99.90
42973;DHT22;28610;51.214;6.962;2022-08-01T04:28:37;19.70;99.90
42973;DHT22;28610;51.214;6.962;2022-08-01T04:31:24;19.60;99.90
42973;DHT22;28610;51.214;6.962;2022-08-01T04:34:15;19.50;99.90
42973;DHT22;28610;51.214;6.962;2022-08-01T04:37:02;19.50;99.90
42973;DHT22;28610;51.214;6.962;2022-08-01T04:39:51;19.50;99.90
42973;DHT22;28610;51.214;6.962;2022-08-01T04:42:37;19.50;99.90
42973;DHT22;28610;51.214;6.962;2022-08-01T04:45:23;19.50;99.90
42973;DHT22;28610;51.214;6.962;2022-08-01T04:48:10;19.50;99.90
42973;DHT22;28610;51.214;6.962;2022-08-01T04:50:57;19.60;99.90
42973;DHT22;28610;51.214;6.962;2022-08-01T04:53:43;19.60;99.90
42973;DHT22;28610;51.214;6.962;2022-08-01T04:56:29;19.60;99.90
42973;DHT22;28610;51.214;6.962;2022-08-01T04:59:15;19.60;99.90
42973;DHT22;28610;51.214;6.962;2022-08-01T05:02:18;19.70;99.90
42973;DHT22;28610;51.214;6.962;2022-08-01T05:05:05;19.70;99.90
42973;DHT22;28610;51.214;6.962;2022-08-01T05:07:52;19.60;99.90
42973;DHT22;28610;51.214;6.962;2022-08-01T05:10:38;19.70;99.90
42973;DHT22;28610;51.214;6.962;2022-08-01T05:13:23;19.70;99.90
42973;DHT22;28610;51.214;6.962;2022-08-01T05:16:09;19.70;99.90
42973;DHT22;28610;51.214;6.962;2022-08-01T05:18:55;19.60;99.90
42973;DHT22;28610;51.214;6.962;2022-08-01T05:21:40;19.60;99.90
42973;DHT22;28610;51.214;6.962;2022-08-01T05:24:27;19.60;99.90
42973;DHT22;28610;51.214;6.962;2022-08-01T05:27:13;19.60;99.90
42973;DHT22;28610;51.214;6.962;2022-08-01T05:29:58;19.60;99.90
42973;DHT22;28610;51.214;6.962;2022-08-01T05:32:44;19.70;99.90
42973;DHT22;28610;51.214;6.962;2022-08-01T05:35:29;19.70;99.90
42973;DHT22;28610;51.214;6.962;2022-08-01T05:38:15;19.60;99.90
42973;DHT22;28610;51.214;6.962;2022-08-01T05:41:01;19.60;99.90
42973;DHT22;28610;51.214;6.962;2022-08-01T05:43:47;19.70;99.90
42973;DHT22;28610;51.214;6.962;2022-08-01T05:46:32;19.70;99.90
42973;DHT22;28610;51.214;6.962;2022-08-01T05:49:18;19.70;99.90
42973;DHT22;28610;51.214;6.962;2022-08-01T05:52:03;19.70;99.90
42973;DHT22;28610;51.214;6.962;2022-08-01T05:54:49;19.80;99.90
42973;DHT22;28610;51.214;6.962;2022-08-01T05:57:36;19.80;99.90
42973;DHT22;28610;51.214;6.962;2022-08-01T06:00:21;19.80;99.90
42973;DHT22;28610;51.214;6.962;2022-08-01T06:03:07;20.10;99.90
42973;DHT22;28610;51.214;6.962;2022-08-01T06:05:52;20.20;99.90
42973;DHT22;28610;51.214;6.962;2022-08-01T06:08:38;20.10;99.90
42973;DHT22;28610;51.214;6.962;2022-08-01T06:11:23;20.20;99.90
42973;DHT22;28610;51.214;6.962;2022-08-01T06:14:10;20.20;99.90
42973;DHT22;28610;51.214;6.962;2022-08-01T06:16:55;20.30;99.90
42973;DHT22;28610;51.214;6.962;2022-08-01T06:19:40;20.30;99.90
42973;DHT22;28610;51.214;6.962;2022-08-01T06:22:26;20.30;99.90
42973;DHT22;28610;51.214;6.962;2022-08-01T06:25:11;20.40;99.90
42973;DHT22;28610;51.214;6.962;2022-08-01T06:27:57;20.20;99.90
42973;DHT22;28610;51.214;6.962;2022-08-01T06:30:44;20.20;99.90
42973;DHT22;28610;51.214;6.962;2022-08-01T06:33:29;20.20;99.90
42973;DHT22;28610;51.214;6.962;2022-08-01T06:36:14;20.20;99.90
42973;DHT22;28610;51.214;6.962;2022-08-01T06:39:00;20.30;99.90
42973;DHT22;28610;51.214;6.962;2022-08-01T06:41:45;20.40;99.90
42973;DHT22;28610;51.214;6.962;2022-08-01T06:44:31;20.30;99.90
42973;DHT22;28610;51.214;6.962;2022-08-01T06:47:17;20.30;99.90
42973;DHT22;28610;51.214;6.962;2022-08-01T06:50:04;20.50;99.90
42973;DHT22;28610;51.214;6.962;2022-08-01T06:52:50;20.80;99.90
42973;DHT22;28610;51.214;6.962;2022-08-01T06:55:35;21.00;99.90
42973;DHT22;28610;51.214;6.962;2022-08-01T06:58:20;20.90;98.50
42973;DHT22;28610;51.214;6.962;2022-08-01T07:01:06;20.80;99.30
42973;DHT22;28610;51.214;6.962;2022-08-01T07:03:53;20.80;99.40
42973;DHT22;28610;51.214;6.962;2022-08-01T07:06:38;20.80;98.70
42973;DHT22;28610;51.214;6.962;2022-08-01T07:09:24;21.00;98.80
42973;DHT22;28610;51.214;6.962;2022-08-01T07:12:09;21.00;97.90
42973;DHT22;28610;51.214;6.962;2022-08-01T07:14:55;20.90;99.00
42973;DHT22;28610;51.214;6.962;2022-08-01T07:17:41;21.00;98.30
42973;DHT22;28610;51.214;6.962;2022-08-01T07:20:28;21.20;97.70
42973;DHT22;28610;51.214;6.962;2022-08-01T07:23:14;21.50;97.80
42973;DHT22;28610;51.214;6.962;2022-08-01T07:25:59;21.50;96.30
42973;DHT22;28610;51.214;6.962;2022-08-01T07:28:45;21.70;95.80
42973;DHT22;28610;51.214;6.962;2022-08-01T07:31:31;22.00;94.90
42973;DHT22;28610;51.214;6.962;2022-08-01T07:34:16;22.20;94.00
42973;DHT22;28610;51.214;6.962;2022-08-01T07:37:03;22.30;93.00
42973;DHT22;28610;51.214;6.962;2022-08-01T07:39:48;22.40;92.30
42973;DHT22;28610;51.214;6.962;2022-08-01T07:42:34;22.20;93.00
42973;DHT22;28610;51.214;6.962;2022-08-01T07:45:19;22.10;93.60
42973;DHT22;28610;51.214;6.962;2022-08-01T07:48:06;21.80;91.90
42973;DHT22;28610;51.214;6.962;2022-08-01T07:50:51;21.80;93.30
42973;DHT22;28610;51.214;6.962;2022-08-01T07:53:38;21.90;93.70
42973;DHT22;28610;51.214;6.962;2022-08-01T07:56:24;21.90;93.80
42973;DHT22;28610;51.214;6.962;2022-08-01T07:59:10;22.20;93.60
42973;DHT22;28610;51.214;6.962;2022-08-01T08:01:55;22.40;92.70
42973;DHT22;28610;51.214;6.962;2022-08-01T08:04:41;22.80;90.80
42973;DHT22;28610;51.214;6.962;2022-08-01T08:07:26;22.70;89.90
42973;DHT22;28610;51.214;6.962;2022-08-01T08:10:13;22.70;91.20
42973;DHT22;28610;51.214;6.962;2022-08-01T08:12:58;22.90;90.60
42973;DHT22;28610;51.214;6.962;2022-08-01T08:15:44;23.20;89.90
42973;DHT22;28610;51.214;6.962;2022-08-01T08:18:30;23.80;85.10
42973;DHT22;28610;51.214;6.962;2022-08-01T08:21:15;24.00;82.00
42973;DHT22;28610;51.214;6.962;2022-08-01T08:24:01;24.10;83.60
42973;DHT22;28610;51.214;6.962;2022-08-01T08:27:05;24.40;79.30
42973;DHT22;28610;51.214;6.962;2022-08-01T08:29:51;24.40;77.90
42973;DHT22;28610;51.214;6.962;2022-08-01T08:32:37;24.30;77.60
42973;DHT22;28610;51.214;6.962;2022-08-01T08:35:23;23.80;84.60
42973;DHT22;28610;51.214;6.962;2022-08-01T08:38:08;23.50;82.30
42973;DHT22;28610;51.214;6.962;2022-08-01T08:40:54;24.60;78.50
42973;DHT22;28610;51.214;6.962;2022-08-01T08:43:42;25.40;72.10
42973;DHT22;28610;51.214;6.962;2022-08-01T08:46:28;26.60;65.40
42973;DHT22;28610;51.214;6.962;2022-08-01T08:49:17;26.90;61.70
42973;DHT22;28610;51.214;6.962;2022-08-01T08:52:03;28.00;54.40
42973;DHT22;28610;51.214;6.962;2022-08-01T08:54:50;27.40;57.60
42973;DHT22;28610;51.214;6.962;2022-08-01T08:57:39;26.20;60.30
42973;DHT22;28610;51.214;6.962;2022-08-01T09:00:26;25.80;64.10
42973;DHT22;28610;51.214;6.962;2022-08-01T09:03:12;25.60;66.00
42973;DHT22;28610;51.214;6.962;2022-08-01T09:05:57;25.30;67.60
42973;DHT22;28610;51.214;6.962;2022-08-01T09:08:42;25.90;68.10
42973;DHT22;28610;51.214;6.962;2022-08-01T09:11:28;26.20;63.90
42973;DHT22;28610;51.214;6.962;2022-08-01T09:14:15;26.10;64.60
42973;DHT22;28610;51.214;6.962;2022-08-01T09:17:09;25.60;65.40
42973;DHT22;28610;51.214;6.962;2022-08-01T09:19:56;25.90;65.70
42973;DHT22;28610;51.214;6.962;2022-08-01T09:22:42;25.90;62.20
42973;DHT22;28610;51.214;6.962;2022-08-01T09:25:27;25.90;62.80
42973;DHT22;28610;51.214;6.962;2022-08-01T09:28:17;25.70;65.50
42973;DHT22;28610;51.214;6.962;2022-08-01T09:31:06;25.60;67.10
42973;DHT22;28610;51.214;6.962;2022-08-01T09:33:55;25.50;67.50
42973;DHT22;28610;51.214;6.962;2022-08-01T09:36:45;25.30;67.70
42973;DHT22;28610;51.214;6.962;2022-08-01T09:39:34;25.20;65.60
42973;DHT22;28610;51.214;6.962;2022-08-01T09:42:23;26.50;62.70
42973;DHT22;28610;51.214;6.962;2022-08-01T09:45:09;27.30;54.70
42973;DHT22;28610;51.214;6.962;2022-08-01T09:47:55;26.00;60.40
42973;DHT22;28610;51.214;6.962;2022-08-01T09:50:43;26.00;62.10
42973;DHT22;28610;51.214;6.962;2022-08-01T09:53:40;26.20;57.70
42973;DHT22;28610;51.214;6.962;2022-08-01T09:56:26;26.90;57.70
42973;DHT22;28610;51.214;6.962;2022-08-01T09:59:20;26.40;60.30
42973;DHT22;28610;51.214;6.962;2022-08-01T10:02:06;26.20;61.40
42973;DHT22;28610;51.214;6.962;2022-08-01T10:04:52;26.50;60.70
42973;DHT22;28610;51.214;6.962;2022-08-01T10:07:58;26.30;60.80
42973;DHT22;28610;51.214;6.962;2022-08-01T10:11:07;26.80;60.00
42973;DHT22;28610;51.214;6.962;2022-08-01T10:13:53;27.60;55.70
42973;DHT22;28610;51.214;6.962;2022-08-01T10:16:39;27.90;52.40
42973;DHT22;28610;51.214;6.962;2022-08-01T10:19:27;28.40;51.60
42973;DHT22;28610;51.214;6.962;2022-08-01T10:22:13;29.10;48.10
42973;DHT22;28610;51.214;6.962;2022-08-01T10:25:03;28.70;49.50
42973;DHT22;28610;51.214;6.962;2022-08-01T10:27:52;29.00;48.20
42973;DHT22;28610;51.214;6.962;2022-08-01T10:30:41;28.30;47.70
42973;DHT22;28610;51.214;6.962;2022-08-01T10:33:29;27.70;53.00
42973;DHT22;28610;51.214;6.962;2022-08-01T10:36:17;27.40;54.30
42973;DHT22;28610;51.214;6.962;2022-08-01T10:39:03;27.50;52.20
42973;DHT22;28610;51.214;6.962;2022-08-01T10:41:51;27.90;53.20
42973;DHT22;28610;51.214;6.962;2022-08-01T10:44:37;27.80;53.00
42973;DHT22;28610;51.214;6.962;2022-08-01T10:47:37;27.30;49.90
42973;DHT22;28610;51.214;6.962;2022-08-01T10:50:28;27.20;47.30
42973;DHT22;28610;51.214;6.962;2022-08-01T10:53:17;27.30;48.80
42973;DHT22;28610;51.214;6.962;2022-08-01T10:56:04;26.90;53.00
42973;DHT22;28610;51.214;6.962;2022-08-01T10:59:00;27.10;50.90
42973;DHT22;28610;51.214;6.962;2022-08-01T11:01:56;26.80;52.50
42973;DHT22;28610;51.214;6.962;2022-08-01T11:04:50;26.30;51.90
42973;DHT22;28610;51.214;6.962;2022-08-01T11:07:45;26.20;52.50
42973;DHT22;28610;51.214;6.962;2022-08-01T11:10:36;26.40;53.40
42973;DHT22;28610;51.214;6.962;2022-08-01T11:14:04;26.40;51.80
42973;DHT22;28610;51.214;6.962;2022-08-01T11:16:53;26.60;53.10
42973;DHT22;28610;51.214;6.962;2022-08-01T11:20:05;26.70;51.60
42973;DHT22;28610;51.214;6.962;2022-08-01T11:23:27;26.60;52.10
42973;DHT22;28610;51.214;6.962;2022-08-01T11:26:14;26.90;50.90
42973;DHT22;28610;51.214;6.962;2022-08-01T11:29:18;26.60;51.20
42973;DHT22;28610;51.214;6.962;2022-08-01T11:32:24;26.80;50.90
42973;DHT22;28610;51.214;6.962;2022-08-01T11:35:10;26.80;51.20
42973;DHT22;28610;51.214;6.962;2022-08-01T11:37:55;26.60;49.90
42973;DHT22;28610;51.214;6.962;2022-08-01T11:40:41;26.10;49.50
42973;DHT22;28610;51.214;6.962;2022-08-01T11:43:26;26.30;50.30
42973;DHT22;28610;51.214;6.962;2022-08-01T11:46:13;26.40;49.80
42973;DHT22;28610;51.214;6.962;2022-08-01T11:49:26;26.50;48.10
42973;DHT22;28610;51.214;6.962;2022-08-01T11:52:14;26.70;49.00
42973;DHT22;28610;51.214;6.962;2022-08-01T11:55:06;26.90;48.00
42973;DHT22;28610;51.214;6.962;2022-08-01T11:57:58;26.60;47.10
42973;DHT22;28610;51.214;6.962;2022-08-01T12:00:50;26.70;48.80
42973;DHT22;28610;51.214;6.962;2022-08-01T12:03:37;26.80;45.90
42973;DHT22;28610;51.214;6.962;2022-08-01T12:06:27;27.00;48.10
42973;DHT22;28610;51.214;6.962;2022-08-01T12:09:20;27.10;46.70
42973;DHT22;28610;51.214;6.962;2022-08-01T12:12:06;27.40;45.90
42973;DHT22;28610;51.214;6.962;2022-08-01T12:14:56;27.30;45.90
42973;DHT22;28610;51.214;6.962;2022-08-01T12:17:42;27.40;45.40
42973;DHT22;28610;51.214;6.962;2022-08-01T12:20:30;27.70;44.30
42973;DHT22;28610;51.214;6.962;2022-08-01T12:23:16;26.90;44.90
42973;DHT22;28610;51.214;6.962;2022-08-01T12:26:02;26.70;46.90
42973;DHT22;28610;51.214;6.962;2022-08-01T12:28:48;26.60;48.80
42973;DHT22;28610;51.214;6.962;2022-08-01T12:31:35;26.40;50.50
42973;DHT22;28610;51.214;6.962;2022-08-01T12:34:27;26.40;52.50
42973;DHT22;28610;51.214;6.962;2022-08-01T12:37:13;26.40;53.90
42973;DHT22;28610;51.214;6.962;2022-08-01T12:39:59;26.30;53.90
42973;DHT22;28610;51.214;6.962;2022-08-01T12:42:46;26.10;54.20
42973;DHT22;28610;51.214;6.962;2022-08-01T12:45:34;26.50;53.80
42973;DHT22;28610;51.214;6.962;2022-08-01T12:48:19;26.80;52.70
42973;DHT22;28610;51.214;6.962;2022-08-01T12:51:06;26.70;51.40
42973;DHT22;28610;51.214;6.962;2022-08-01T12:53:58;27.00;51.90
42973;DHT22;28610;51.214;6.962;2022-08-01T12:56:43;27.30;50.80
42973;DHT22;28610;51.214;6.962;2022-08-01T12:59:29;27.10;49.10
42973;DHT22;28610;51.214;6.962;2022-08-01T13:02:15;27.20;50.10
42973;DHT22;28610;51.214;6.962;2022-08-01T13:05:00;27.50;48.70
42973;DHT22;28610;51.214;6.962;2022-08-01T13:07:48;27.70;48.60
42973;DHT22;28610;51.214;6.962;2022-08-01T13:10:35;27.70;46.10
42973;DHT22;28610;51.214;6.962;2022-08-01T13:13:20;27.30;46.40
42973;DHT22;28610;51.214;6.962;2022-08-01T13:16:07;27.30;46.00
42973;DHT22;28610;51.214;6.962;2022-08-01T13:18:54;27.10;47.60
42973;DHT22;28610;51.214;6.962;2022-08-01T13:21:53;27.00;47.90
42973;DHT22;28610;51.214;6.962;2022-08-01T13:24:39;26.80;49.50
42973;DHT22;28610;51.214;6.962;2022-08-01T13:27:26;26.90;50.40
42973;DHT22;28610;51.214;6.962;2022-08-01T13:30:15;27.00;49.50
42973;DHT22;28610;51.214;6.962;2022-08-01T13:33:00;27.20;47.80
42973;DHT22;28610;51.214;6.962;2022-08-01T13:35:46;26.70;47.80
42973;DHT22;28610;51.214;6.962;2022-08-01T13:38:31;26.70;46.30
42973;DHT22;28610;51.214;6.962;2022-08-01T13:41:34;26.40;48.60
42973;DHT22;28610;51.214;6.962;2022-08-01T13:44:21;26.80;48.90
42973;DHT22;28610;51.214;6.962;2022-08-01T13:47:07;26.80;49.40
42973;DHT22;28610;51.214;6.962;2022-08-01T13:49:53;26.60;48.80
42973;DHT22;28610;51.214;6.962;2022-08-01T13:52:38;26.30;49.80
42973;DHT22;28610;51.214;6.962;2022-08-01T13:55:24;26.30;49.70
42973;DHT22;28610;51.214;6.962;2022-08-01T13:58:09;26.40;49.50
42973;DHT22;28610;51.214;6.962;2022-08-01T14:00:56;26.30;50.60
42973;DHT22;28610;51.214;6.962;2022-08-01T14:03:42;26.30;48.60
42973;DHT22;28610;51.214;6.962;2022-08-01T14:06:28;26.20;48.60
42973;DHT22;28610;51.214;6.962;2022-08-01T14:09:13;26.20;50.80
42973;DHT22;28610;51.214;6.962;2022-08-01T14:12:00;26.30;52.30
42973;DHT22;28610;51.214;6.962;2022-08-01T14:14:45;26.10;52.40
42973;DHT22;28610;51.214;6.962;2022-08-01T14:17:32;26.20;52.20
42973;DHT22;28610;51.214;6.962;2022-08-01T14:20:18;26.40;51.70
42973;DHT22;28610;51.214;6.962;2022-08-01T14:23:04;26.30;51.10
42973;DHT22;28610;51.214;6.962;2022-08-01T14:25:49;26.40;51.80
42973;DHT22;28610;51.214;6.962;2022-08-01T14:28:35;26.20;50.50
42973;DHT22;28610;51.214;6.962;2022-08-01T14:31:20;26.10;52.00
42973;DHT22;28610;51.214;6.962;2022-08-01T14:34:07;26.10;53.20
42973;DHT22;28610;51.214;6.962;2022-08-01T14:36:53;26.20;51.70
42973;DHT22;28610;51.214;6.962;2022-08-01T14:39:38;26.40;52.70
42973;DHT22;28610;51.214;6.962;2022-08-01T14:42:23;26.40;52.40
42973;DHT22;28610;51.214;6.962;2022-08-01T14:45:11;26.20;50.20
42973;DHT22;28610;51.214;6.962;2022-08-01T14:47:56;26.30;51.70
42973;DHT22;28610;51.214;6.962;2022-08-01T14:50:43;26.30;52.10
42973;DHT22;28610;51.214;6.962;2022-08-01T14:53:29;26.20;53.10
42973;DHT22;28610;51.214;6.962;2022-08-01T14:56:14;26.00;54.50
42973;DHT22;28610;51.214;6.962;2022-08-01T14:58:59;26.30;55.00
42973;DHT22;28610;51.214;6.962;2022-08-01T15:01:45;26.10;53.00
42973;DHT22;28610;51.214;6.962;2022-08-01T15:04:30;26.10;56.10
42973;DHT22;28610;51.214;6.962;2022-08-01T15:07:17;26.00;55.50
42973;DHT22;28610;51.214;6.962;2022-08-01T15:10:04;26.00;54.20
42973;DHT22;28610;51.214;6.962;2022-08-01T15:12:50;26.00;54.20
42973;DHT22;28610;51.214;6.962;2022-08-01T15:15:35;26.00;52.30
42973;DHT22;28610;51.214;6.962;2022-08-01T15:18:21;26.00;52.50
42973;DHT22;28610;51.214;6.962;2022-08-01T15:21:06;26.00;52.30
42973;DHT22;28610;51.214;6.962;2022-08-01T15:23:53;25.70;52.50
42973;DHT22;28610;51.214;6.962;2022-08-01T15:26:38;25.80;52.50
42973;DHT22;28610;51.214;6.962;2022-08-01T15:29:24;25.90;54.60
42973;DHT22;28610;51.214;6.962;2022-08-01T15:32:09;25.90;54.00
42973;DHT22;28610;51.214;6.962;2022-08-01T15:34:55;25.70;53.40
42973;DHT22;28610;51.214;6.962;2022-08-01T15:37:40;25.70;53.00
42973;DHT22;28610;51.214;6.962;2022-08-01T15:40:28;25.50;53.90
42973;DHT22;28610;51.214;6.962;2022-08-01T15:43:16;25.60;53.70
42973;DHT22;28610;51.214;6.962;2022-08-01T15:46:03;25.60;54.30
42973;DHT22;28610;51.214;6.962;2022-08-01T15:48:49;25.60;54.40
42973;DHT22;28610;51.214;6.962;2022-08-01T15:51:34;25.60;55.50
42973;DHT22;28610;51.214;6.962;2022-08-01T15:54:20;25.50;54.50
42973;DHT22;28610;51.214;6.962;2022-08-01T15:57:07;25.40;55.80
42973;DHT22;28610;51.214;6.962;2022-08-01T15:59:53;25.40;55.60
42973;DHT22;28610;51.214;6.962;2022-08-01T16:02:38;25.50;55.40
42973;DHT22;28610;51.214;6.962;2022-08-01T16:05:24;25.30;55.10
42973;DHT22;28610;51.214;6.962;2022-08-01T16:08:10;25.20;56.60
42973;DHT22;28610;51.214;6.962;2022-08-01T16:10:55;25.00;57.60
42973;DHT22;28610;51.214;6.962;2022-08-01T16:13:42;25.20;56.60
42973;DHT22;28610;51.214;6.962;2022-08-01T16:16:27;25.10;57.20
42973;DHT22;28610;51.214;6.962;2022-08-01T16:19:13;25.20;57.40
42973;DHT22;28610;51.214;6.962;2022-08-01T16:21:58;25.10;56.50
42973;DHT22;28610;51.214;6.962;2022-08-01T16:24:44;25.00;57.50
42973;DHT22;28610;51.214;6.962;2022-08-01T16:27:29;25.20;57.30
42973;DHT22;28610;51.214;6.962;2022-08-01T16:30:16;24.80;56.50
42973;DHT22;28610;51.214;6.962;2022-08-01T16:33:01;24.70;57.20
42973;DHT22;28610;51.214;6.962;2022-08-01T16:35:47;24.70;58.80
42973;DHT22;28610;51.214;6.962;2022-08-01T16:38:32;24.70;59.10
42973;DHT22;28610;51.214;6.962;2022-08-01T16:41:17;24.60;60.30
42973;DHT22;28610;51.214;6.962;2022-08-01T16:44:03;24.80;60.00
42973;DHT22;28610;51.214;6.962;2022-08-01T16:46:50;24.80;57.90
42973;DHT22;28610;51.214;6.962;2022-08-01T16:49:35;24.90;59.70
42973;DHT22;28610;51.214;6.962;2022-08-01T16:52:20;24.90;59.30
42973;DHT22;28610;51.214;6.962;2022-08-01T16:55:06;24.80;58.00
42973;DHT22;28610;51.214;6.962;2022-08-01T16:57:52;24.80;59.00
42973;DHT22;28610;51.214;6.962;2022-08-01T17:00:38;24.90;58.00
42973;DHT22;28610;51.214;6.962;2022-08-01T17:03:27;25.00;58.40
42973;DHT22;28610;51.214;6.962;2022-08-01T17:06:12;25.00;56.90
42973;DHT22;28610;51.214;6.962;2022-08-01T17:08:58;24.80;56.50
42973;DHT22;28610;51.214;6.962;2022-08-01T17:11:43;24.60;57.60
42973;DHT22;28610;51.214;6.962;2022-08-01T17:14:29;24.50;56.80
42973;DHT22;28610;51.214;6.962;2022-08-01T17:17:16;24.50;57.60
42973;DHT22;28610;51.214;6.962;2022-08-01T17:20:03;24.70;57.30
42973;DHT22;28610;51.214;6.962;2022-08-01T17:22:49;24.60;58.00
42973;DHT22;28610;51.214;6.962;2022-08-01T17:25:35;24.40;58.70
42973;DHT22;28610;51.214;6.962;2022-08-01T17:28:20;24.40;60.10
42973;DHT22;28610;51.214;6.962;2022-08-01T17:31:06;24.40;58.30
42973;DHT22;28610;51.214;6.962;2022-08-01T17:33:51;24.40;58.30
42973;DHT22;28610;51.214;6.962;2022-08-01T17:36:38;24.30;59.30
42973;DHT22;28610;51.214;6.962;2022-08-01T17:39:24;24.30;58.80